createdAt,value
2018-07-31T00:04:00.335Z,99209.63
2018-07-31T00:21:00.026Z,99207.53
2018-07-31T00:23:36.594Z,99207.87
2018-07-31T00:41:58.601Z,99208.34
2018-07-31T00:49:03.823Z,99202.66
2018-07-31T00:51:52.215Z,99206.95
2018-07-31T00:54:41.905Z,99206.27
2018-07-31T01:00:52.427Z,99204.09
2018-07-31T01:07:32.500Z,99196.31
2018-07-31T01:10:25.362Z,99205.88
2018-07-31T01:17:03.737Z,99206.53
2018-07-31T01:19:38.677Z,99208.09
2018-07-31T01:22:41.295Z,99212.06
2018-07-31T01:28:52.343Z,99207.31
2018-07-31T01:31:57.582Z,99202.78
2018-07-31T01:37:02.534Z,99205.00
2018-07-31T01:42:41.496Z,99210.98
2018-07-31T01:54:29.756Z,99217.28
2018-07-31T02:03:50.980Z,99220.34
2018-07-31T02:09:52.002Z,99225.66
2018-07-31T02:28:11.405Z,99223.83
2018-07-31T02:54:30.280Z,99223.23
2018-07-31T02:59:38.459Z,99222.81
2018-07-31T03:02:27.173Z,99227.86
2018-07-31T03:05:17.101Z,99224.34
2018-07-31T03:08:05.736Z,99229.72
2018-07-31T03:10:55.728Z,99233.56
2018-07-31T03:13:34.653Z,99236.92
2018-07-31T03:16:33.604Z,99240.94
2018-07-31T03:19:16.448Z,99245.14
2018-07-31T03:25:06.372Z,99245.14
2018-07-31T03:30:57.035Z,99239.13
2018-07-31T03:48:37.016Z,99231.05
2018-07-31T03:51:28.352Z,99233.25
2018-07-31T03:54:27.108Z,99234.93
2018-07-31T03:57:09.877Z,99233.25
2018-07-31T03:59:44.114Z,99231.57
2018-07-31T04:08:26.081Z,99231.39
2018-07-31T04:22:22.117Z,99237.25
2018-07-31T04:33:49.318Z,99240.45
2018-07-31T04:36:30.386Z,99239.58
2018-07-31T04:47:14.439Z,99247.65
2018-07-31T04:52:58.320Z,99247.98
2018-07-31T04:56:04.029Z,99249.66
2018-07-31T05:05:27.844Z,99258.70
2018-07-31T05:08:20.133Z,99258.72
2018-07-31T05:16:02.526Z,99266.22
2018-07-31T05:19:12.511Z,99266.39
2018-07-31T05:27:30.533Z,99264.31
2018-07-31T05:31:13.739Z,99270.66
2018-07-31T05:33:57.759Z,99271.03
2018-07-31T05:39:37.984Z,99280.49
2018-07-31T05:42:23.721Z,99284.66
2018-07-31T05:48:08.326Z,99286.83
2018-07-31T05:50:40.631Z,99293.40
2018-07-31T05:53:28.536Z,99290.53
2018-07-31T05:56:57.066Z,99288.82
2018-07-31T05:59:40.652Z,99283.17
2018-07-31T06:03:46.449Z,99293.26
2018-07-31T06:06:24.504Z,99285.31
2018-07-31T06:09:23.192Z,99286.16
2018-07-31T06:12:45.880Z,99291.47
2018-07-31T06:15:18.101Z,99284.41
2018-07-31T06:17:55.406Z,99284.83
2018-07-31T06:21:33.293Z,99286.86
2018-07-31T06:24:11.707Z,99292.22
2018-07-31T06:27:02.200Z,99286.30
2018-07-31T06:29:56.281Z,99285.58
2018-07-31T06:32:35.599Z,99287.86
2018-07-31T06:37:56.156Z,99288.70
2018-07-31T06:40:28.900Z,99287.82
2018-07-31T06:43:07.231Z,99289.43
2018-07-31T06:45:44.670Z,99288.03
2018-07-31T06:48:29.501Z,99282.20
2018-07-31T06:53:41.776Z,99289.84
2018-07-31T06:56:10.162Z,99286.11
2018-07-31T06:58:38.433Z,99289.20
2018-07-31T07:01:07.625Z,99291.78
2018-07-31T07:03:36.031Z,99294.92
2018-07-31T07:06:04.443Z,99289.73
2018-07-31T07:08:32.882Z,99298.32
2018-07-31T07:11:01.254Z,99298.06
2018-07-31T07:13:29.715Z,99299.06
2018-07-31T07:15:58.144Z,99301.98
2018-07-31T07:18:26.581Z,99303.92
2018-07-31T07:20:54.723Z,99304.77
2018-07-31T07:23:23.157Z,99307.91
2018-07-31T07:25:51.579Z,99313.87
2018-07-31T07:28:19.557Z,99310.98
2018-07-31T07:30:47.856Z,99312.56
2018-07-31T07:33:16.350Z,99310.56
2018-07-31T07:35:44.576Z,99306.39
2018-07-31T07:38:13.101Z,99304.66
2018-07-31T07:40:41.274Z,99310.58
2018-07-31T07:43:09.911Z,99313.77
2018-07-31T07:45:39.209Z,99309.84
2018-07-31T07:48:07.715Z,99309.55
2018-07-31T07:50:36.518Z,99307.98
2018-07-31T07:53:04.921Z,99318.38
2018-07-31T07:55:33.220Z,99311.53
2018-07-31T07:58:01.658Z,99320.33
2018-07-31T08:00:29.832Z,99314.91
2018-07-31T08:02:58.340Z,99321.20
2018-07-31T08:05:26.814Z,99318.67
2018-07-31T08:07:55.274Z,99319.45
2018-07-31T08:10:23.672Z,99322.30
2018-07-31T08:12:52.022Z,99323.12
2018-07-31T08:15:20.414Z,99320.47
2018-07-31T08:17:48.799Z,99319.92
2018-07-31T08:20:17.294Z,99317.03
2018-07-31T08:22:45.860Z,99307.21
2018-07-31T08:25:14.191Z,99312.31
2018-07-31T08:27:42.616Z,99306.47
2018-07-31T08:30:11.022Z,99310.78
2018-07-31T08:32:39.471Z,99307.61
2018-07-31T08:35:07.961Z,99315.98
2018-07-31T08:37:36.545Z,99314.19
2018-07-31T08:40:04.916Z,99320.27
2018-07-31T08:42:33.182Z,99328.35
2018-07-31T08:45:01.454Z,99326.47
2018-07-31T08:47:29.733Z,99318.41
2018-07-31T08:49:58.017Z,99317.45
2018-07-31T08:52:25.986Z,99315.44
2018-07-31T08:54:54.448Z,99311.74
2018-07-31T08:57:22.780Z,99307.59
2018-07-31T08:59:51.283Z,99308.70
2018-07-31T09:02:19.595Z,99291.48
2018-07-31T09:04:47.983Z,99286.06
2018-07-31T09:07:16.511Z,99282.80
2018-07-31T09:09:44.836Z,99287.13
2018-07-31T09:12:13.210Z,99289.86
2018-07-31T09:14:41.717Z,99287.73
2018-07-31T09:17:10.706Z,99293.64
2018-07-31T09:19:38.960Z,99292.70
2018-07-31T09:22:07.665Z,99297.89
2018-07-31T09:24:36.098Z,99292.59
2018-07-31T09:27:04.392Z,99300.61
2018-07-31T09:29:32.919Z,99297.77
2018-07-31T09:32:01.257Z,99297.20
2018-07-31T09:34:29.846Z,99297.20
2018-07-31T09:36:58.245Z,99294.30
2018-07-31T09:39:26.386Z,99289.63
2018-07-31T09:41:54.767Z,99290.80
2018-07-31T09:44:22.988Z,99291.74
2018-07-31T09:46:51.103Z,99283.69
2018-07-31T09:49:19.373Z,99286.86
2018-07-31T09:51:47.709Z,99290.31
2018-07-31T09:54:15.931Z,99283.47
2018-07-31T09:56:44.206Z,99279.98
2018-07-31T09:59:12.497Z,99292.44
2018-07-31T10:01:40.866Z,99302.02
2018-07-31T10:04:09.139Z,99305.08
2018-07-31T10:06:37.419Z,99302.34
2018-07-31T10:09:08.345Z,99317.25
2018-07-31T10:11:36.734Z,99313.88
2018-07-31T10:14:05.119Z,99316.84
2018-07-31T10:16:33.493Z,99319.56
2018-07-31T10:19:01.671Z,99321.55
2018-07-31T10:21:30.276Z,99331.63
2018-07-31T10:23:58.636Z,99333.49
2018-07-31T10:26:26.661Z,99332.00
2018-07-31T10:28:55.132Z,99325.74
2018-07-31T10:31:23.658Z,99317.06
2018-07-31T10:33:52.235Z,99312.23
2018-07-31T10:36:20.511Z,99309.04
2018-07-31T10:38:48.899Z,99305.30
2018-07-31T10:41:17.256Z,99308.09
2018-07-31T10:43:45.653Z,99297.91
2018-07-31T10:46:14.152Z,99309.48
2018-07-31T10:48:42.394Z,99314.89
2018-07-31T10:51:10.814Z,99320.85
2018-07-31T10:53:39.199Z,99322.01
2018-07-31T10:56:07.638Z,99324.05
2018-07-31T10:58:36.054Z,99324.63
2018-07-31T11:01:04.343Z,99317.21
2018-07-31T11:03:32.667Z,99315.77
2018-07-31T11:06:00.931Z,99308.70
2018-07-31T11:08:29.262Z,99308.78
2018-07-31T11:10:57.598Z,99303.57
2018-07-31T11:13:25.657Z,99304.55
2018-07-31T11:15:53.944Z,99302.66
2018-07-31T11:18:22.315Z,99299.59
2018-07-31T11:20:50.540Z,99299.85
2018-07-31T11:23:18.876Z,99299.16
2018-07-31T11:25:47.142Z,99299.81
2018-07-31T11:28:15.616Z,99293.09
2018-07-31T11:30:43.895Z,99298.52
2018-07-31T11:33:12.103Z,99304.16
2018-07-31T11:35:40.446Z,99298.67
2018-07-31T11:38:08.778Z,99302.91
2018-07-31T11:40:37.212Z,99309.75
2018-07-31T11:43:05.387Z,99312.47
2018-07-31T11:45:33.710Z,99307.48
2018-07-31T11:48:01.987Z,99315.41
2018-07-31T11:50:30.400Z,99318.27
2018-07-31T11:52:58.821Z,99314.23
2018-07-31T11:55:27.176Z,99308.45
2018-07-31T11:57:55.557Z,99306.36
2018-07-31T12:00:23.963Z,99300.48
2018-07-31T12:02:52.409Z,99296.33
2018-07-31T12:05:20.792Z,99288.62
2018-07-31T12:07:49.158Z,99286.16
2018-07-31T12:10:17.443Z,99279.31
2018-07-31T12:12:45.815Z,99279.75
2018-07-31T12:15:14.335Z,99276.86
2018-07-31T12:17:42.784Z,99283.58
2018-07-31T12:20:11.053Z,99286.52
2018-07-31T12:22:39.435Z,99285.11
2018-07-31T12:25:07.902Z,99279.37
2018-07-31T12:27:36.211Z,99282.67
2018-07-31T12:30:06.638Z,99282.58
2018-07-31T12:32:34.872Z,99286.05
2018-07-31T12:35:03.023Z,99277.92
2018-07-31T12:37:31.237Z,99277.88
2018-07-31T12:39:59.544Z,99274.58
2018-07-31T12:42:27.888Z,99283.72
2018-07-31T12:44:56.466Z,99283.32
2018-07-31T12:47:24.870Z,99286.36
2018-07-31T12:49:53.123Z,99284.60
2018-07-31T12:52:21.397Z,99281.80
2018-07-31T12:54:49.699Z,99274.41
2018-07-31T12:57:18.157Z,99273.06
2018-07-31T12:59:46.521Z,99275.49
2018-07-31T13:02:14.824Z,99277.00
2018-07-31T13:04:43.295Z,99271.84
2018-07-31T13:07:11.866Z,99276.13
2018-07-31T13:09:40.080Z,99266.21
2018-07-31T13:12:08.610Z,99262.56
2018-07-31T13:14:37.003Z,99251.50
2018-07-31T13:17:05.392Z,99264.30
2018-07-31T13:19:33.667Z,99259.88
2018-07-31T13:22:02.082Z,99255.27
2018-07-31T13:24:30.396Z,99261.00
2018-07-31T13:26:58.688Z,99258.14
2018-07-31T13:29:26.900Z,99261.79
2018-07-31T13:31:55.124Z,99256.73
2018-07-31T13:34:23.420Z,99254.60
2018-07-31T13:36:51.894Z,99250.00
2018-07-31T13:39:20.383Z,99248.30
2018-07-31T13:41:48.859Z,99248.73
2018-07-31T13:44:17.287Z,99243.68
2018-07-31T13:46:45.598Z,99250.42
2018-07-31T13:49:13.674Z,99250.08
2018-07-31T13:51:42.054Z,99246.58
2018-07-31T13:54:10.684Z,99246.97
2018-07-31T13:56:38.837Z,99244.89
2018-07-31T13:59:07.536Z,99243.48
2018-07-31T14:01:35.879Z,99243.42
2018-07-31T14:04:04.042Z,99238.84
2018-07-31T14:06:32.427Z,99240.84
2018-07-31T14:09:00.842Z,99239.27
2018-07-31T14:11:29.268Z,99241.27
2018-07-31T14:13:57.809Z,99246.03
2018-07-31T14:16:26.345Z,99240.64
2018-07-31T14:18:54.605Z,99241.98
2018-07-31T14:21:22.903Z,99243.61
2018-07-31T14:23:51.161Z,99238.56
2018-07-31T14:26:19.450Z,99245.03
2018-07-31T14:28:47.722Z,99238.42
2018-07-31T14:31:15.993Z,99230.80
2018-07-31T14:33:44.174Z,99229.77
2018-07-31T14:36:12.654Z,99215.43
2018-07-31T14:38:41.087Z,99214.72
2018-07-31T14:41:09.508Z,99209.66
2018-07-31T14:43:37.886Z,99215.13
2018-07-31T14:46:06.258Z,99212.05
2018-07-31T14:48:34.784Z,99208.89
2018-07-31T14:51:02.718Z,99214.31
2018-07-31T14:53:31.195Z,99214.11
2018-07-31T14:55:59.376Z,99208.52
2018-07-31T14:58:27.952Z,99199.13
2018-07-31T15:00:56.234Z,99192.20
2018-07-31T15:03:24.703Z,99197.60
2018-07-31T15:05:53.011Z,99197.34
2018-07-31T15:08:21.254Z,99205.39
2018-07-31T15:10:49.653Z,99203.07
2018-07-31T15:13:18.046Z,99201.34
2018-07-31T15:15:46.381Z,99202.04
2018-07-31T15:18:14.771Z,99200.67
2018-07-31T15:20:43.190Z,99196.70
2018-07-31T15:23:11.729Z,99196.96
2018-07-31T15:25:40.114Z,99192.67
2018-07-31T15:28:08.675Z,99205.63
2018-07-31T15:30:36.953Z,99199.27
2018-07-31T15:33:05.323Z,99200.15
2018-07-31T15:35:33.711Z,99206.58
2018-07-31T15:38:02.094Z,99213.50
2018-07-31T15:40:30.461Z,99224.55
2018-07-31T15:42:58.879Z,99235.09
2018-07-31T15:45:26.930Z,99237.10
2018-07-31T15:47:55.516Z,99246.21
2018-07-31T15:50:23.721Z,99245.14
2018-07-31T15:52:52.069Z,99240.96
2018-07-31T15:55:20.325Z,99240.33
2018-07-31T15:57:48.845Z,99237.42
2018-07-31T16:00:17.121Z,99240.58
2018-07-31T16:02:45.673Z,99248.99
2018-07-31T16:05:14.037Z,99244.98
2018-07-31T16:07:42.331Z,99247.72
2018-07-31T16:10:10.811Z,99251.19
2018-07-31T16:12:39.414Z,99260.63
2018-07-31T16:15:07.767Z,99263.77
2018-07-31T16:17:36.135Z,99267.11
2018-07-31T16:20:04.453Z,99262.70
2018-07-31T16:22:32.799Z,99265.80
2018-07-31T16:25:01.174Z,99271.71
2018-07-31T16:27:29.594Z,99273.94
2018-07-31T16:29:58.031Z,99279.78
2018-07-31T16:32:26.511Z,99278.05
2018-07-31T16:34:54.787Z,99281.93
2018-07-31T16:37:23.072Z,99278.95
2018-07-31T16:39:51.135Z,99278.77
2018-07-31T16:42:19.501Z,99281.16
2018-07-31T16:44:47.923Z,99277.92
2018-07-31T16:47:16.159Z,99275.16
2018-07-31T16:49:44.551Z,99274.52
2018-07-31T16:52:12.856Z,99278.02
2018-07-31T16:54:41.299Z,99276.13
2018-07-31T16:57:09.770Z,99275.59
2018-07-31T16:59:37.958Z,99278.02
2018-07-31T17:02:06.421Z,99277.88
2018-07-31T17:04:34.715Z,99273.66
2018-07-31T17:07:03.180Z,99277.78
2018-07-31T17:09:31.821Z,99276.20
2018-07-31T17:12:00.294Z,99283.87
2018-07-31T17:14:28.836Z,99295.38
2018-07-31T17:16:57.201Z,99288.40
2018-07-31T17:19:25.495Z,99284.63
2018-07-31T17:21:53.767Z,99285.77
2018-07-31T17:24:22.139Z,99283.22
2018-07-31T17:26:50.106Z,99290.38
2018-07-31T17:29:18.419Z,99292.43
2018-07-31T17:31:46.763Z,99293.50
2018-07-31T17:34:14.929Z,99290.52
2018-07-31T17:36:43.238Z,99287.74
2018-07-31T17:39:11.954Z,99297.48
2018-07-31T17:41:40.426Z,99301.02
2018-07-31T17:44:08.855Z,99304.70
2018-07-31T17:46:37.338Z,99306.61
2018-07-31T17:49:05.822Z,99311.66
2018-07-31T17:51:34.195Z,99314.06
2018-07-31T17:54:02.683Z,99320.16
2018-07-31T17:56:31.046Z,99329.93
2018-07-31T17:58:59.421Z,99327.86
2018-07-31T18:01:27.608Z,99331.64
2018-07-31T18:03:56.015Z,99330.48
2018-07-31T18:06:24.259Z,99333.69
2018-07-31T18:08:52.903Z,99339.96
2018-07-31T18:11:22.802Z,99342.08
2018-07-31T18:13:52.969Z,99352.16
2018-07-31T18:16:26.651Z,99354.89
2018-07-31T18:18:55.252Z,99361.69
2018-07-31T18:21:23.655Z,99358.16
2018-07-31T18:23:51.975Z,99362.84
2018-07-31T18:26:20.296Z,99365.69
2018-07-31T18:28:48.266Z,99363.23
2018-07-31T18:31:16.543Z,99361.34
2018-07-31T18:33:45.109Z,99364.48
2018-07-31T18:36:13.249Z,99373.88
2018-07-31T18:38:41.665Z,99374.03
2018-07-31T18:41:10.032Z,99372.80
2018-07-31T18:43:38.432Z,99374.48
2018-07-31T18:46:06.905Z,99377.42
2018-07-31T18:48:35.198Z,99380.28
2018-07-31T18:51:03.854Z,99371.70
2018-07-31T18:53:32.630Z,99371.64
2018-07-31T18:56:01.501Z,99370.95
2018-07-31T18:58:30.522Z,99372.69
2018-07-31T19:00:58.969Z,99375.03
2018-07-31T19:03:27.329Z,99371.88
2018-07-31T19:05:55.878Z,99366.30
2018-07-31T19:08:24.262Z,99361.35
2018-07-31T19:10:52.837Z,99369.59
2018-07-31T19:13:21.120Z,99366.33
2018-07-31T19:15:49.285Z,99374.16
2018-07-31T19:18:17.796Z,99370.78
2018-07-31T19:20:46.225Z,99366.63
2018-07-31T19:23:14.296Z,99367.71
2018-07-31T19:25:42.810Z,99372.75
2018-07-31T19:28:11.193Z,99369.06
2018-07-31T19:30:39.533Z,99367.91
2018-07-31T19:33:08.083Z,99373.64
2018-07-31T19:35:36.407Z,99370.29
2018-07-31T19:38:04.783Z,99367.41
2018-07-31T19:40:33.121Z,99368.06
2018-07-31T19:43:01.532Z,99372.52
2018-07-31T19:45:30.026Z,99371.05
2018-07-31T19:47:58.434Z,99370.86
2018-07-31T19:50:26.806Z,99370.72
2018-07-31T19:52:55.154Z,99373.94
2018-07-31T19:55:23.442Z,99373.79
2018-07-31T19:57:51.902Z,99365.02
2018-07-31T20:00:20.185Z,99368.71
2018-07-31T20:02:48.263Z,99369.87
2018-07-31T20:05:16.635Z,99379.55
2018-07-31T20:07:44.901Z,99381.02
2018-07-31T20:10:13.211Z,99381.71
2018-07-31T20:12:41.672Z,99379.91
2018-07-31T20:15:10.062Z,99372.29
2018-07-31T20:17:38.522Z,99380.28
2018-07-31T20:20:07.235Z,99374.39
2018-07-31T20:22:35.555Z,99380.97
2018-07-31T20:25:03.962Z,99382.56
2018-07-31T20:27:32.380Z,99384.69
2018-07-31T20:30:00.932Z,99383.59
2018-07-31T20:32:29.302Z,99386.63
2018-07-31T20:34:57.689Z,99386.35
2018-07-31T20:37:26.164Z,99387.79
2018-07-31T20:39:54.548Z,99378.52
2018-07-31T20:42:22.860Z,99372.95
2018-07-31T20:44:51.090Z,99374.67
2018-07-31T20:47:19.415Z,99369.83
2018-07-31T20:49:47.845Z,99378.44
2018-07-31T20:52:16.113Z,99382.63
2018-07-31T20:54:45.262Z,99381.47
2018-07-31T20:57:14.549Z,99385.16
2018-07-31T20:59:43.638Z,99379.62
2018-07-31T21:02:12.327Z,99381.44
2018-07-31T21:04:40.671Z,99387.79
2018-07-31T21:07:09.050Z,99379.44
2018-07-31T21:09:37.561Z,99380.81
2018-07-31T21:12:06.104Z,99375.40
2018-07-31T21:14:35.440Z,99371.70
2018-07-31T21:17:03.899Z,99375.59
2018-07-31T21:19:32.000Z,99376.24
2018-07-31T21:22:00.443Z,99363.63
2018-07-31T21:24:28.614Z,99361.13
2018-07-31T21:26:56.721Z,99364.70
2018-07-31T21:29:25.092Z,99371.64
2018-07-31T21:31:53.541Z,99374.64
2018-07-31T21:34:21.846Z,99368.58
2018-07-31T21:36:50.095Z,99373.98
2018-07-31T21:39:18.389Z,99379.38
2018-07-31T21:41:46.992Z,99375.34
2018-07-31T21:44:15.230Z,99372.30
2018-07-31T21:46:43.650Z,99364.59
2018-07-31T21:49:12.086Z,99366.83
2018-07-31T21:51:40.362Z,99364.31
2018-07-31T21:54:08.641Z,99355.37
2018-07-31T21:56:36.967Z,99361.25
2018-07-31T21:59:05.434Z,99361.94
2018-07-31T22:01:33.976Z,99355.05
2018-07-31T22:04:02.345Z,99351.98
2018-07-31T22:06:30.636Z,99358.27
2018-07-31T22:08:58.997Z,99354.44
2018-07-31T22:11:27.478Z,99352.36
2018-07-31T22:13:55.882Z,99348.30
2018-07-31T22:16:24.234Z,99350.52
2018-07-31T22:18:52.760Z,99350.17
2018-07-31T22:21:20.649Z,99349.30
2018-07-31T22:23:48.968Z,99341.73
2018-07-31T22:26:17.167Z,99339.09
2018-07-31T22:28:45.265Z,99331.94
2018-07-31T22:31:13.596Z,99337.48
2018-07-31T22:33:42.069Z,99330.36
2018-07-31T22:36:09.976Z,99329.91
2018-07-31T22:38:38.214Z,99333.62
2018-07-31T22:41:06.591Z,99347.09
2018-07-31T22:43:34.857Z,99337.82
2018-07-31T22:46:03.139Z,99344.55
2018-07-31T22:48:31.620Z,99343.55
2018-07-31T22:50:59.894Z,99341.38
2018-07-31T22:53:28.369Z,99337.02
2018-07-31T22:55:56.650Z,99342.88
2018-07-31T22:58:25.027Z,99342.06
2018-07-31T23:00:53.390Z,99334.33
2018-07-31T23:03:21.814Z,99333.62
2018-07-31T23:05:50.154Z,99335.82
2018-07-31T23:08:18.443Z,99338.91
2018-07-31T23:10:46.828Z,99341.92
2018-07-31T23:13:15.195Z,99336.56
2018-07-31T23:15:43.465Z,99342.75
2018-07-31T23:18:11.743Z,99340.71
2018-07-31T23:20:40.132Z,99343.06
2018-07-31T23:23:08.729Z,99331.14
2018-07-31T23:25:36.978Z,99333.81
2018-07-31T23:28:05.363Z,99338.02
2018-07-31T23:30:33.658Z,99334.52
2018-07-31T23:33:02.015Z,99335.69
2018-07-31T23:35:30.184Z,99341.88
2018-07-31T23:37:58.398Z,99339.86
2018-07-31T23:40:26.710Z,99339.86
2018-07-31T23:42:55.115Z,99343.20
2018-07-31T23:45:23.435Z,99336.50
2018-07-31T23:47:51.387Z,99331.97
2018-07-31T23:50:19.816Z,99339.38
2018-07-31T23:52:48.120Z,99340.58
2018-07-31T23:55:16.390Z,99344.27
2018-07-31T23:57:44.901Z,99347.64
